KABY/ABY METAR and TAF weather

Enter ICAO airport designator
Station Type Date Time Source
KABY METAR 2021/10/22 18:53 UTC NOAA

KABY 221853Z 30010KT 10SM CLR 31/16 A3001 RMK AO2 SLP159 T03060156


Station Type Date Time Source
KABY Decoded METAR 2021/10/22 18:53 UTC NOAA

ALBANY SOUTHWEST GEORGIA, GA, United States (KABY) 31-32N 084-12W 58M
Oct 22, 2021 - 02:53 PM EDT / 2021.10.22 1853 UTC
Wind: from the WNW (300 degrees) at 12 MPH (10 KT):0
Visibility: 10 mile(s):0
Sky conditions: clear
Temperature: 87.1 F (30.6 C)
Dew Point: 60.1 F (15.6 C)
Relative Humidity: 40%
Pressure (altimeter): 30.01 in. Hg (1016 hPa)
ob: KABY 221853Z 30010KT 10SM CLR 31/16 A3001 RMK AO2 SLP159 T03060156
cycle: 19

Station Type Date Time Source
KABY TAF 2021/10/22 18:24 UTC NOAA

TAF KABY 221721Z 2218/2318 30006KT P6SM FEW040
FM230000 VRB03KT P6SM FEW250
FM231400 02005KT P6SM SKC

Example: see airport list